createdAt,value
2023-04-04T00:01:06.113Z,973.18
2023-04-04T00:06:37.796Z,973.5
2023-04-04T00:12:09.188Z,972.81
2023-04-04T00:17:41.233Z,973.31
2023-04-04T00:23:12.881Z,973.14
2023-04-04T00:28:44.417Z,972.51
2023-04-04T00:34:16.178Z,972.49
2023-04-04T00:39:47.877Z,972.53
2023-04-04T00:45:19.908Z,972.68
2023-04-04T00:50:57.815Z,971.67
2023-04-04T00:56:29.667Z,971.82
2023-04-04T01:02:01.268Z,971.27
2023-04-04T01:07:38.045Z,970.94
2023-04-04T01:13:04.913Z,970.7
2023-04-04T01:18:36.401Z,971.18
2023-04-04T01:24:08.033Z,971.16
2023-04-04T01:29:39.803Z,971.23
2023-04-04T01:35:11.580Z,970.83
2023-04-04T01:40:43.757Z,971.15
2023-04-04T01:46:15.158Z,971.19
2023-04-04T01:51:51.253Z,970.6
2023-04-04T01:57:22.928Z,971.13
2023-04-04T02:02:54.597Z,970.99
2023-04-04T02:08:26.254Z,970.54
2023-04-04T02:13:58.265Z,970.33
2023-04-04T02:19:29.925Z,969.77
2023-04-04T02:25:01.542Z,970.17
2023-04-04T02:30:33.493Z,970.26
2023-04-04T02:36:05.035Z,970.01
2023-04-04T02:41:36.537Z,970.02
2023-04-04T02:47:08.397Z,969.95
2023-04-04T02:52:46.641Z,969.17
2023-04-04T02:58:18.225Z,969.11
2023-04-04T03:03:51.153Z,969.32
2023-04-04T03:09:21.825Z,969.35
2023-04-04T03:14:53.314Z,969.88
2023-04-04T03:20:25.227Z,969.52
2023-04-04T03:25:57.425Z,969.48
2023-04-04T03:31:28.688Z,969.96
2023-04-04T03:37:00.408Z,969.63
2023-04-04T03:42:32.112Z,969.01
2023-04-04T03:48:03.866Z,969.13
2023-04-04T03:53:42.091Z,970.02
2023-04-04T03:59:13.661Z,970.0
2023-04-04T04:04:46.141Z,969.41
2023-04-04T04:10:17.051Z,969.34
2023-04-04T04:15:49.101Z,969.03
2023-04-04T04:21:20.670Z,969.7
2023-04-04T04:26:52.359Z,969.8
2023-04-04T04:32:24.022Z,969.2
2023-04-04T04:37:55.654Z,969.69
2023-04-04T04:43:27.388Z,969.12
2023-04-04T04:48:59.465Z,968.66
2023-04-04T04:54:35.378Z,969.12
2023-04-04T05:00:07.232Z,968.95
2023-04-04T05:05:38.624Z,969.76
2023-04-04T05:11:10.555Z,969.74
2023-04-04T05:16:42.416Z,969.83
2023-04-04T05:22:13.788Z,969.49
2023-04-04T05:27:46.118Z,969.76
2023-04-04T05:33:17.198Z,970.12
2023-04-04T05:38:49.118Z,970.52
2023-04-04T05:44:20.616Z,971.05
2023-04-04T05:49:52.403Z,971.05
2023-04-04T05:55:30.550Z,970.61
2023-04-04T06:01:02.368Z,973.06
2023-04-04T06:06:34.199Z,971.4
2023-04-04T06:12:06.172Z,972.76
2023-04-04T06:17:37.714Z,973.37
2023-04-04T06:23:09.378Z,973.79
2023-04-04T06:28:41.059Z,973.71
2023-04-04T06:34:12.685Z,974.35
2023-04-04T06:39:44.558Z,974.61
2023-04-04T06:45:16.353Z,976.43
2023-04-04T06:50:48.072Z,976.08
2023-04-04T06:56:26.058Z,976.86
2023-04-04T07:01:57.781Z,976.88
2023-04-04T07:07:29.606Z,977.21
2023-04-04T07:13:01.364Z,977.32
2023-04-04T07:18:33.121Z,976.94
2023-04-04T07:24:04.756Z,976.71
2023-04-04T07:29:36.684Z,976.67
2023-04-04T07:35:08.382Z,977.9
2023-04-04T07:40:40.585Z,978.5
2023-04-04T07:46:11.835Z,978.21
2023-04-04T07:51:43.799Z,977.78
2023-04-04T07:57:19.644Z,979.19
2023-04-04T08:02:51.356Z,979.67
2023-04-04T08:08:22.706Z,978.66
2023-04-04T08:13:55.332Z,978.6
2023-04-04T08:19:26.265Z,979.22
2023-04-04T08:24:58.931Z,980.55
2023-04-04T08:30:29.934Z,979.98
2023-04-04T08:36:01.733Z,981.14
2023-04-04T08:41:33.106Z,979.85
2023-04-04T08:47:05.096Z,982.01
2023-04-04T08:52:36.789Z,982.33
2023-04-04T08:58:15.018Z,980.64
2023-04-04T09:03:46.773Z,979.77
2023-04-04T09:09:18.211Z,980.44
2023-04-04T09:14:50.463Z,979.98
2023-04-04T09:20:21.936Z,979.9
2023-04-04T09:26:05.384Z,979.68
2023-04-04T09:31:25.333Z,980.46
2023-04-04T09:36:57.649Z,979.65
2023-04-04T09:42:28.537Z,980.43
2023-04-04T09:48:00.573Z,981.06
2023-04-04T09:53:31.891Z,982.21
2023-04-04T09:59:08.414Z,981.9
2023-04-04T10:04:39.988Z,981.03
2023-04-04T10:10:12.581Z,981.3
2023-04-04T10:15:43.508Z,982.18
2023-04-04T10:21:16.782Z,983.14
2023-04-04T10:26:46.757Z,982.83
2023-04-04T10:32:18.346Z,981.42
2023-04-04T10:37:50.357Z,982.21
2023-04-04T10:43:22.702Z,982.21
2023-04-04T10:48:53.473Z,982.37
2023-04-04T10:54:25.276Z,981.99
2023-04-04T11:00:02.744Z,981.47
2023-04-04T11:05:33.072Z,983.35
2023-04-04T11:11:23.179Z,982.18
2023-04-04T11:16:36.926Z,982.14
2023-04-04T11:22:08.273Z,982.45
2023-04-04T11:27:40.444Z,983.54
2023-04-04T11:33:12.028Z,982.86
2023-04-04T11:38:43.378Z,982.76
2023-04-04T11:44:15.450Z,981.8
2023-04-04T11:49:47.254Z,982.29
2023-04-04T11:55:18.999Z,981.96
2023-04-04T12:00:55.623Z,980.56
2023-04-04T12:06:26.357Z,982.08
2023-04-04T12:11:58.202Z,982.27
2023-04-04T12:17:29.832Z,982.35
2023-04-04T12:23:01.738Z,982.24
2023-04-04T12:28:33.402Z,983.39
2023-04-04T12:34:04.939Z,980.33
2023-04-04T12:39:36.561Z,981.85
2023-04-04T12:45:08.333Z,981.12
2023-04-04T12:50:40.170Z,981.43
2023-04-04T12:56:11.743Z,982.83
2023-04-04T13:01:50.467Z,981.36
2023-04-04T13:07:21.732Z,980.74
2023-04-04T13:12:53.416Z,980.38
2023-04-04T13:18:25.177Z,981.73
2023-04-04T13:23:57.003Z,981.48
2023-04-04T13:29:28.598Z,980.8
2023-04-04T13:35:00.435Z,980.86
2023-04-04T13:40:32.832Z,978.59
2023-04-04T13:46:04.146Z,980.1
2023-04-04T13:51:35.661Z,979.06
2023-04-04T13:57:07.368Z,980.22
2023-04-04T14:02:43.695Z,980.85
2023-04-04T14:08:15.430Z,979.76
2023-04-04T14:13:47.119Z,978.87
2023-04-04T14:19:18.656Z,979.25
2023-04-04T14:24:50.285Z,979.95
2023-04-04T14:30:22.339Z,979.62
2023-04-04T14:35:54.004Z,978.92
2023-04-04T14:41:25.668Z,979.15
2023-04-04T14:46:57.402Z,979.54
2023-04-04T14:52:29.043Z,977.76
2023-04-04T14:58:03.637Z,979.02
2023-04-04T15:03:38.786Z,979.82
2023-04-04T15:09:10.489Z,978.76
2023-04-04T15:14:42.476Z,979.13
2023-04-04T15:20:13.853Z,978.97
2023-04-04T15:25:45.947Z,978.67
2023-04-04T15:31:17.385Z,979.07
2023-04-04T15:36:49.260Z,978.4
2023-04-04T15:42:20.928Z,979.22
2023-04-04T15:47:52.947Z,978.64
2023-04-04T15:53:24.547Z,979.36
2023-04-04T15:58:56.336Z,979.9
2023-04-04T16:04:32.069Z,978.85
2023-04-04T16:10:04.001Z,977.29
2023-04-04T16:15:36.459Z,977.19
2023-04-04T16:21:07.367Z,977.68
2023-04-04T16:26:39.254Z,977.9
2023-04-04T16:32:10.905Z,976.55
2023-04-04T16:37:42.700Z,976.59
2023-04-04T16:43:14.297Z,976.99
2023-04-04T16:48:46.216Z,975.55
2023-04-04T16:54:17.654Z,976.03
2023-04-04T16:59:49.360Z,974.37
2023-04-04T17:05:25.588Z,975.72
2023-04-04T17:10:57.229Z,974.44
2023-04-04T17:16:29.075Z,974.76
2023-04-04T17:22:00.680Z,975.15
2023-04-04T17:27:32.329Z,974.79
2023-04-04T17:33:04.260Z,975.03
2023-04-04T17:38:35.792Z,973.91
2023-04-04T17:44:07.643Z,973.13
2023-04-04T17:49:39.524Z,973.48
2023-04-04T17:55:11.147Z,972.61
2023-04-04T18:00:43.223Z,973.26
2023-04-04T18:06:19.542Z,972.64
2023-04-04T18:11:50.695Z,972.82
2023-04-04T18:17:22.315Z,973.23
2023-04-04T18:22:53.851Z,972.45
2023-04-04T18:28:25.567Z,972.27
2023-04-04T18:33:57.362Z,972.05
2023-04-04T18:39:29.044Z,971.73
2023-04-04T18:45:01.605Z,972.13
2023-04-04T18:50:32.569Z,972.35
2023-04-04T18:56:04.212Z,971.92
2023-04-04T19:01:36.421Z,971.81
2023-04-04T19:07:12.151Z,971.42
2023-04-04T19:12:43.729Z,971.02
2023-04-04T19:18:15.671Z,971.16
2023-04-04T19:23:47.544Z,971.08
2023-04-04T19:29:18.909Z,970.6
2023-04-04T19:34:50.848Z,970.46
2023-04-04T19:40:23.003Z,970.27
2023-04-04T19:45:54.316Z,970.35
2023-04-04T19:51:26.103Z,970.34
2023-04-04T19:56:57.663Z,970.61
2023-04-04T20:02:29.964Z,970.78
2023-04-04T20:08:05.529Z,970.42
2023-04-04T20:13:37.095Z,970.27
2023-04-04T20:19:09.484Z,970.05
2023-04-04T20:24:40.831Z,970.31
2023-04-04T20:30:12.407Z,969.68
2023-04-04T20:35:44.190Z,969.89
2023-04-04T20:41:15.820Z,970.09
2023-04-04T20:46:47.568Z,970.05
2023-04-04T20:52:19.285Z,970.17
2023-04-04T20:57:50.880Z,970.1
2023-04-04T21:03:22.648Z,969.96
2023-04-04T21:08:58.953Z,969.66
2023-04-04T21:14:30.641Z,970.03
2023-04-04T21:20:02.638Z,970.0
2023-04-04T21:25:34.166Z,969.68
2023-04-04T21:31:05.878Z,969.63
2023-04-04T21:36:37.499Z,969.55
2023-04-04T21:42:10.099Z,969.43
2023-04-04T21:47:41.041Z,969.41
2023-04-04T21:53:13.460Z,969.67
2023-04-04T21:58:44.547Z,969.81
2023-04-04T22:04:16.539Z,969.3
2023-04-04T22:09:52.184Z,969.12
2023-04-04T22:15:23.973Z,969.12
2023-04-04T22:20:55.813Z,968.99
2023-04-04T22:26:27.420Z,968.78
2023-04-04T22:31:59.422Z,968.66
2023-04-04T22:37:31.413Z,968.76
2023-04-04T22:43:02.610Z,968.86
2023-04-04T22:48:34.316Z,968.81
2023-04-04T22:54:06.221Z,968.95
2023-04-04T22:59:37.883Z,969.02
2023-04-04T23:05:09.742Z,968.9
2023-04-04T23:10:45.366Z,968.52
2023-04-04T23:16:17.605Z,968.87
2023-04-04T23:21:49.099Z,968.67
2023-04-04T23:27:21.331Z,968.68
2023-04-04T23:32:52.718Z,968.36
2023-04-04T23:38:24.202Z,968.35
2023-04-04T23:43:55.991Z,968.54
2023-04-04T23:49:27.686Z,968.8
2023-04-04T23:54:59.748Z,968.75
